createdAt,value
2022-11-22T00:18:07.261Z,2.80
2022-11-22T04:54:08.407Z,3.00
2022-11-22T05:00:38.191Z,4.20
2022-11-22T05:06:54.803Z,3.90
2022-11-22T05:11:04.442Z,3.40
2022-11-22T05:12:44.637Z,4.00
2022-11-22T05:19:32.705Z,3.60
2022-11-22T05:22:02.849Z,1.90
2022-11-22T05:28:18.984Z,2.70
2022-11-22T05:35:17.732Z,4.60
2022-11-22T05:45:26.320Z,2.70
2022-11-22T05:47:06.940Z,2.80
2022-11-22T05:53:06.776Z,2.80
2022-11-22T05:55:37.549Z,4.00
2022-11-22T05:58:18.451Z,4.50
2022-11-22T06:01:28.271Z,4.20
2022-11-22T06:07:40.119Z,4.20
2022-11-22T06:19:14.774Z,4.90
2022-11-22T06:22:11.532Z,4.60
2022-11-22T06:25:10.932Z,4.00
2022-11-22T06:27:47.366Z,3.80
2022-11-22T06:30:17.391Z,4.20
2022-11-22T06:33:11.880Z,3.00
2022-11-22T06:40:52.686Z,3.00
2022-11-22T06:43:20.566Z,3.30
2022-11-22T06:45:45.531Z,5.10
2022-11-22T06:48:12.407Z,5.30
2022-11-22T06:50:39.306Z,4.90
2022-11-22T06:53:46.133Z,4.70
2022-11-22T06:57:24.848Z,5.40
2022-11-22T06:59:25.853Z,3.00
2022-11-22T07:09:30.075Z,3.10
2022-11-22T07:12:08.484Z,4.40
2022-11-22T07:15:14.052Z,2.40
2022-11-22T07:18:09.219Z,2.70
2022-11-22T07:30:16.047Z,4.60
2022-11-22T07:39:32.300Z,5.40
2022-11-22T07:42:56.996Z,4.40
2022-11-22T09:46:32.917Z,2.90
2022-11-22T09:49:27.612Z,3.00
2022-11-22T09:51:54.343Z,3.00
2022-11-22T09:54:24.682Z,3.00
2022-11-22T09:56:52.582Z,3.00
2022-11-22T09:59:21.763Z,3.00
2022-11-22T10:01:51.354Z,3.00
2022-11-22T10:04:25.041Z,3.00
2022-11-22T10:07:18.960Z,3.00
2022-11-22T10:10:13.005Z,3.00
2022-11-22T10:12:50.582Z,3.00
2022-11-22T10:15:50.718Z,3.00
2022-11-22T10:18:25.548Z,3.10
2022-11-22T10:20:52.297Z,3.10
2022-11-22T10:23:21.474Z,3.20
2022-11-22T10:25:57.857Z,3.20
2022-11-22T10:28:48.405Z,3.30
2022-11-22T10:31:15.100Z,3.30
2022-11-22T10:33:55.155Z,4.00
2022-11-22T10:36:27.101Z,3.40
2022-11-22T10:39:19.586Z,3.40
2022-11-22T10:42:08.206Z,3.40
2022-11-22T10:44:37.982Z,3.50
2022-11-22T10:47:41.192Z,3.50
2022-11-22T10:50:24.034Z,3.50
2022-11-22T10:53:00.090Z,3.50
2022-11-22T10:55:46.724Z,3.60
2022-11-22T10:58:25.354Z,3.70
2022-11-22T11:01:01.252Z,3.70
2022-11-22T11:03:35.174Z,3.70
2022-11-22T11:06:33.400Z,3.80
2022-11-22T11:12:29.288Z,3.90
2022-11-22T11:15:00.339Z,3.90
2022-11-22T11:17:33.753Z,4.00
2022-11-22T11:20:02.058Z,4.00
2022-11-22T11:23:06.509Z,4.00
2022-11-22T11:25:26.983Z,4.10
2022-11-22T11:27:53.809Z,4.10
2022-11-22T11:30:20.635Z,4.10
2022-11-22T11:32:55.010Z,4.10
2022-11-22T11:35:26.886Z,4.10
2022-11-22T11:37:53.781Z,4.10
2022-11-22T11:40:28.372Z,4.10
2022-11-22T11:43:27.698Z,4.10
2022-11-22T11:45:54.438Z,4.00
2022-11-22T11:48:28.240Z,4.00
2022-11-22T11:51:07.529Z,4.00
2022-11-22T11:53:34.272Z,4.10
2022-11-22T11:56:20.972Z,4.10
2022-11-22T11:58:54.364Z,5.30
2022-11-22T12:01:21.082Z,4.10
2022-11-22T12:04:01.986Z,4.10
2022-11-22T12:06:34.633Z,4.10
2022-11-22T12:09:03.861Z,4.00
2022-11-22T12:11:40.406Z,4.00
2022-11-22T12:14:22.500Z,4.00
2022-11-22T12:16:51.221Z,4.00
2022-11-22T12:19:23.219Z,4.00
2022-11-22T12:22:00.586Z,4.00
2022-11-22T12:24:52.632Z,3.90
2022-11-22T12:27:29.362Z,3.90
2022-11-22T12:29:58.628Z,3.90
2022-11-22T12:32:35.295Z,4.00
2022-11-22T12:35:12.310Z,4.00
2022-11-22T12:37:43.453Z,4.00
2022-11-22T12:40:18.572Z,4.10
2022-11-22T12:42:50.628Z,4.00
2022-11-22T12:45:24.638Z,4.00
2022-11-22T12:47:53.858Z,4.00
2022-11-22T12:50:30.667Z,3.90
2022-11-22T12:53:07.650Z,3.90
2022-11-22T12:55:52.242Z,3.90
2022-11-22T12:58:38.671Z,3.80
2022-11-22T13:01:25.313Z,3.80
2022-11-22T13:04:09.528Z,3.80
2022-11-22T13:07:01.497Z,3.80
2022-11-22T13:09:33.578Z,3.80
2022-11-22T13:12:07.064Z,4.80
2022-11-22T13:14:34.545Z,3.90
2022-11-22T13:17:06.678Z,4.50
2022-11-22T13:19:33.408Z,3.80
2022-11-22T13:22:21.937Z,3.90
2022-11-22T13:25:28.235Z,3.80
2022-11-22T13:27:55.015Z,3.80
2022-11-22T13:30:23.848Z,3.80
2022-11-22T13:32:55.165Z,3.80
2022-11-22T13:35:37.525Z,3.80
2022-11-22T13:38:06.380Z,3.80
2022-11-22T13:40:52.168Z,3.80
2022-11-22T13:43:30.806Z,3.80
2022-11-22T13:46:00.904Z,3.80
2022-11-22T13:48:54.612Z,3.80
2022-11-22T13:51:54.168Z,3.80
2022-11-22T13:54:33.364Z,3.80
2022-11-22T13:57:01.911Z,3.70
2022-11-22T13:59:28.871Z,3.70
2022-11-22T14:01:57.210Z,3.80
2022-11-22T14:04:24.696Z,3.80
2022-11-22T14:07:09.775Z,3.80
2022-11-22T14:09:42.543Z,3.80
2022-11-22T14:12:09.267Z,3.80
2022-11-22T14:14:35.932Z,3.70
2022-11-22T14:17:24.763Z,3.70
2022-11-22T14:20:10.110Z,3.80
2022-11-22T14:22:55.584Z,3.80
2022-11-22T14:25:22.322Z,3.80
2022-11-22T14:27:52.370Z,3.80
2022-11-22T14:30:39.405Z,3.70
2022-11-22T14:33:16.986Z,3.60
2022-11-22T14:36:09.619Z,3.60
2022-11-22T14:38:36.851Z,3.50
2022-11-22T14:41:28.391Z,3.40
2022-11-22T14:44:15.531Z,3.40
2022-11-22T14:46:54.820Z,3.40
2022-11-22T14:49:37.241Z,3.40
2022-11-22T14:52:04.112Z,3.40
2022-11-22T14:54:48.533Z,3.40
2022-11-22T14:57:20.573Z,3.30
2022-11-22T15:00:18.164Z,3.30
2022-11-22T15:03:22.590Z,3.20
2022-11-22T15:09:10.061Z,3.20
2022-11-22T15:09:45.140Z,3.10
2022-11-22T15:12:39.307Z,3.00
2022-11-22T15:58:04.029Z,2.90
2022-11-22T16:00:30.794Z,2.90
2022-11-22T16:03:04.381Z,2.90
2022-11-22T16:06:07.072Z,2.90
2022-11-22T16:08:26.613Z,2.90
2022-11-22T16:10:57.666Z,2.80
2022-11-22T16:13:30.730Z,2.80
2022-11-22T16:16:12.748Z,2.80
2022-11-22T16:18:41.958Z,2.80
2022-11-22T16:21:11.678Z,2.80
2022-11-22T16:23:41.325Z,2.90
2022-11-22T16:26:27.310Z,2.90
2022-11-22T16:28:54.112Z,2.90
2022-11-22T16:31:24.691Z,2.80
2022-11-22T16:33:52.181Z,2.70
2022-11-22T16:36:19.646Z,2.70
2022-11-22T16:38:48.564Z,2.70
2022-11-22T16:41:22.595Z,2.70
2022-11-22T16:43:51.100Z,4.20
2022-11-22T16:46:20.551Z,2.80
2022-11-22T16:48:47.313Z,2.70
2022-11-22T16:51:22.559Z,2.70
2022-11-22T16:53:53.157Z,2.70
2022-11-22T16:56:24.594Z,2.70
2022-11-22T16:58:51.907Z,2.70
2022-11-22T17:01:21.963Z,2.80
2022-11-22T17:03:51.997Z,2.80
2022-11-22T17:06:20.639Z,2.80
2022-11-22T17:08:48.256Z,2.80
2022-11-22T17:11:21.866Z,2.70
2022-11-22T17:13:48.713Z,2.70
2022-11-22T17:16:17.965Z,2.80
2022-11-22T17:18:44.757Z,2.80
2022-11-22T17:21:18.347Z,2.80
2022-11-22T17:23:47.345Z,2.80
2022-11-22T17:26:14.086Z,2.80
2022-11-22T17:28:40.793Z,2.80
2022-11-22T17:31:15.523Z,2.70
2022-11-22T17:33:42.275Z,2.70
2022-11-22T17:36:24.319Z,3.10
2022-11-22T17:38:51.010Z,2.70
2022-11-22T17:41:20.116Z,2.70
2022-11-22T17:43:46.881Z,2.70
2022-11-22T17:46:13.606Z,2.70
2022-11-22T17:48:40.323Z,2.70
2022-11-22T17:51:10.330Z,2.70
2022-11-22T17:53:37.317Z,2.70
2022-11-22T17:56:11.938Z,2.70
2022-11-22T17:58:39.842Z,2.70
2022-11-22T18:01:07.970Z,2.70
2022-11-22T18:03:37.388Z,2.70
2022-11-22T18:06:04.622Z,2.70
2022-11-22T18:08:31.545Z,2.60
2022-11-22T18:11:01.008Z,2.60
2022-11-22T18:13:28.832Z,2.60
2022-11-22T18:16:03.577Z,2.60
2022-11-22T18:21:18.726Z,2.90
2022-11-22T18:23:45.483Z,2.60
2022-11-22T18:29:35.475Z,2.70
2022-11-22T18:31:52.969Z,2.70
2022-11-22T18:34:20.915Z,2.70
2022-11-22T18:37:04.367Z,2.70
2022-11-22T18:39:37.062Z,2.70
2022-11-22T18:42:08.232Z,2.70
2022-11-22T18:44:35.016Z,2.70
2022-11-22T18:47:01.876Z,2.70
2022-11-22T18:49:31.588Z,4.30
2022-11-22T18:52:03.053Z,2.70
2022-11-22T18:54:30.063Z,2.60
2022-11-22T18:56:57.085Z,2.60
2022-11-22T18:59:23.861Z,2.50
2022-11-22T19:01:53.141Z,2.50
2022-11-22T19:04:19.863Z,2.50
2022-11-22T19:06:51.835Z,2.50
2022-11-22T19:09:18.612Z,2.40
2022-11-22T19:11:45.300Z,2.40
2022-11-22T19:14:12.047Z,2.40
2022-11-22T19:16:41.040Z,4.00
2022-11-22T19:19:10.617Z,2.40
2022-11-22T19:21:37.355Z,2.40
2022-11-22T19:24:04.575Z,3.60
2022-11-22T19:26:31.356Z,2.40
2022-11-22T19:28:59.241Z,2.50
2022-11-22T19:31:27.939Z,2.50
2022-11-22T19:33:55.008Z,2.50
2022-11-22T19:36:26.403Z,2.50
2022-11-22T19:38:59.990Z,2.50
2022-11-22T19:41:26.824Z,2.50
2022-11-22T19:43:56.086Z,2.60
2022-11-22T19:46:23.008Z,2.60
2022-11-22T19:48:53.677Z,2.70
2022-11-22T19:51:20.504Z,2.70
2022-11-22T19:53:53.371Z,2.80
2022-11-22T19:56:20.415Z,2.80
2022-11-22T19:58:51.345Z,2.80
2022-11-22T20:01:18.344Z,2.90
2022-11-22T20:03:45.243Z,2.90
2022-11-22T20:06:15.191Z,2.90
2022-11-22T20:08:41.890Z,2.90
2022-11-22T20:11:10.017Z,3.00
2022-11-22T20:13:38.292Z,2.90
2022-11-22T20:16:11.074Z,3.00
2022-11-22T20:18:40.324Z,2.90
2022-11-22T20:21:08.025Z,2.90
2022-11-22T20:23:38.415Z,2.90
2022-11-22T20:26:10.254Z,3.00
2022-11-22T20:28:43.158Z,3.00
2022-11-22T20:31:11.600Z,3.00
2022-11-22T20:33:39.326Z,3.00
2022-11-22T20:36:09.164Z,3.00
2022-11-22T20:38:37.282Z,3.00
2022-11-22T20:41:04.700Z,3.00
2022-11-22T20:43:31.614Z,3.10
2022-11-22T20:46:01.338Z,3.10
2022-11-22T20:48:28.225Z,3.10
2022-11-22T20:50:54.962Z,3.00
2022-11-22T20:53:21.708Z,3.00
2022-11-22T20:55:50.724Z,3.00
2022-11-22T20:58:17.446Z,2.90
2022-11-22T21:00:44.285Z,3.40
2022-11-22T21:03:13.719Z,2.90
2022-11-22T21:05:40.448Z,2.90
2022-11-22T21:08:07.241Z,3.00
2022-11-22T21:10:34.063Z,3.00
2022-11-22T21:13:03.203Z,2.90
2022-11-22T21:15:29.908Z,2.90
2022-11-22T21:18:23.439Z,2.90
2022-11-22T21:20:45.108Z,4.50
2022-11-22T21:23:11.792Z,2.80
2022-11-22T21:25:38.614Z,2.80
2022-11-22T21:28:07.792Z,2.70
2022-11-22T21:30:34.475Z,2.70
2022-11-22T21:33:03.405Z,2.70
2022-11-22T21:35:30.096Z,2.70
2022-11-22T21:37:56.834Z,2.70
2022-11-22T21:40:23.530Z,2.70
2022-11-22T21:42:50.219Z,3.20
2022-11-22T21:45:16.969Z,2.70
2022-11-22T21:47:43.731Z,2.70
2022-11-22T21:50:12.868Z,2.80
2022-11-22T21:52:39.558Z,2.70
2022-11-22T21:55:09.721Z,2.70
2022-11-22T21:57:36.644Z,2.70
2022-11-22T22:00:07.873Z,2.70
2022-11-22T22:02:35.423Z,2.80
2022-11-22T22:05:02.155Z,2.80
2022-11-22T22:07:51.575Z,2.70
2022-11-22T22:10:18.071Z,2.70
2022-11-22T22:12:44.776Z,2.70
2022-11-22T22:15:14.491Z,2.70
2022-11-22T22:17:43.466Z,2.80
2022-11-22T22:20:12.466Z,2.80
2022-11-22T22:22:39.240Z,2.80
2022-11-22T22:25:06.142Z,2.80
2022-11-22T22:27:33.310Z,2.80
2022-11-22T22:30:00.434Z,2.80
2022-11-22T22:32:27.248Z,2.80
2022-11-22T22:34:54.092Z,2.80
2022-11-22T22:37:20.919Z,2.80
2022-11-22T22:39:47.698Z,2.80
2022-11-22T22:42:14.524Z,2.80
2022-11-22T22:44:41.245Z,2.80
2022-11-22T22:47:07.954Z,2.70
2022-11-22T22:49:34.736Z,3.20
2022-11-22T22:52:01.429Z,2.70
2022-11-22T22:54:28.157Z,2.70
2022-11-22T22:56:54.855Z,2.70
2022-11-22T22:59:21.602Z,2.70
2022-11-22T23:01:49.143Z,2.70
2022-11-22T23:04:15.918Z,2.80
2022-11-22T23:06:42.676Z,2.80
2022-11-22T23:09:10.443Z,2.80
2022-11-22T23:11:56.225Z,2.80
2022-11-22T23:14:24.543Z,2.80
2022-11-22T23:16:57.092Z,2.70
2022-11-22T23:19:26.586Z,2.70
2022-11-22T23:21:53.437Z,2.70
2022-11-22T23:24:20.269Z,2.70
2022-11-22T23:26:47.119Z,2.80
2022-11-22T23:29:13.925Z,2.70
2022-11-22T23:31:40.692Z,2.60
2022-11-22T23:34:07.389Z,2.60
2022-11-22T23:36:40.235Z,2.60
2022-11-22T23:39:09.830Z,2.50
2022-11-22T23:41:38.682Z,2.50
2022-11-22T23:44:05.794Z,2.50
2022-11-22T23:46:32.767Z,2.50
2022-11-22T23:49:02.636Z,2.50
2022-11-22T23:51:30.140Z,2.50
2022-11-22T23:53:58.014Z,2.50
2022-11-22T23:56:24.867Z,2.50
2022-11-22T23:58:53.963Z,2.50
